Time;durP1;ratioP1;P1;durP2;ratioP2;P2;SDS_P1;SDS_P2;PMS_P1;PMS_P2;Temp;Humidity;BMP_temperature;BMP_pressure;BME280_temperature;BME280_humidity;BME280_pressure;Samples;Min_cycle;Max_cycle;Signal;HPM_P1;HPM_P2
2022/07/06 00:02:27;;;;;;;19.53;10.53;;;;;;;18.41;81.99;100631.03;5118822;28;20281;-59
2022/07/06 00:04:59;;;;;;;17.97;9.97;;;;;;;18.93;80.96;100626.09;5118695;28;20274;-62
2022/07/06 00:07:30;;;;;;;16.53;10.70;;;;;;;19.58;79.22;100623.09;5116791;28;20289;-60
2022/07/06 00:10:00;;;;;;;21.60;11.17;;;;;;;19.79;77.48;100622.13;5118825;28;20277;-60
2022/07/06 00:12:31;;;;;;;17.53;10.27;;;;;;;19.71;75.93;100624.25;5116831;28;20320;-60
2022/07/06 00:15:02;;;;;;;16.47;10.60;;;;;;;19.92;76.07;100622.38;5118428;28;20321;-59
2022/07/06 00:17:32;;;;;;;21.50;10.70;;;;;;;20.00;75.43;100629.94;5119490;28;20269;-60
2022/07/06 00:20:05;;;;;;;15.90;10.20;;;;;;;19.95;75.15;100610.75;5114747;28;20308;-59
2022/07/06 00:22:36;;;;;;;17.73;12.13;;;;;;;20.21;74.78;100623.53;5115945;28;20313;-59
2022/07/06 00:25:08;;;;;;;17.17;10.33;;;;;;;20.34;74.34;100625.56;5118406;28;20277;-58
2022/07/06 00:27:38;;;;;;;18.40;10.57;;;;;;;20.56;74.96;100625.34;5116321;28;20281;-60
2022/07/06 00:30:10;;;;;;;23.53;11.03;;;;;;;20.62;73.64;100615.28;5118298;28;20278;-60
2022/07/06 00:32:41;;;;;;;16.50;10.50;;;;;;;20.79;73.72;100625.03;5118376;28;20285;-60
2022/07/06 00:35:13;;;;;;;15.67;9.43;;;;;;;20.85;74.08;100623.81;5118633;28;20577;-58
2022/07/06 00:37:43;;;;;;;25.67;10.03;;;;;;;20.87;72.88;100621.94;5118383;28;20293;-59
2022/07/06 00:40:14;;;;;;;14.27;8.43;;;;;;;20.98;73.01;100614.25;5115714;28;20380;-60
2022/07/06 00:42:46;;;;;;;13.30;8.53;;;;;;;21.16;72.44;100611.53;5118340;28;20356;-59
2022/07/06 00:45:18;;;;;;;15.53;7.37;;;;;;;21.52;73.94;100612.19;5116197;28;20273;-60
2022/07/06 00:47:49;;;;;;;22.57;8.20;;;;;;;21.51;72.44;100591.84;5118261;28;20285;-59
2022/07/06 00:50:22;;;;;;;23.90;8.30;;;;;;;21.76;71.78;100601.06;5118501;28;20577;-60
2022/07/06 00:52:54;;;;;;;17.40;7.03;;;;;;;22.01;71.87;100604.97;5118090;28;20458;-60
2022/07/06 00:55:27;;;;;;;10.80;6.40;;;;;;;22.12;71.15;100599.88;5118252;28;20333;-59
2022/07/06 00:57:58;;;;;;;19.17;7.50;;;;;;;22.23;70.06;100605.44;5110214;28;20470;-59
2022/07/06 01:00:29;;;;;;;19.07;6.50;;;;;;;22.38;70.21;100604.53;5116970;28;20051;-60
2022/07/06 01:03:00;;;;;;;14.13;5.43;;;;;;;22.53;70.49;100612.53;5118630;28;20249;-60
2022/07/06 01:05:33;;;;;;;12.47;6.30;;;;;;;22.69;69.88;100597.34;5118318;28;20055;-59
2022/07/06 01:08:03;;;;;;;13.83;6.43;;;;;;;22.54;69.18;100598.28;5118198;28;20063;-59
2022/07/06 01:10:34;;;;;;;16.60;6.63;;;;;;;22.45;68.82;100593.53;5112146;28;20047;-59
2022/07/06 01:13:04;;;;;;;13.00;6.30;;;;;;;22.61;69.62;100594.28;5098914;28;20105;-58
2022/07/06 01:15:35;;;;;;;9.30;5.50;;;;;;;22.83;69.92;100600.00;5098555;28;20260;-58
2022/07/06 01:18:07;;;;;;;11.63;5.63;;;;;;;22.83;69.23;100578.69;5098586;28;20056;-59
2022/07/06 01:20:39;;;;;;;12.13;5.90;;;;;;;22.95;69.33;100592.19;5099883;28;20090;-58
2022/07/06 01:23:10;;;;;;;8.13;5.30;;;;;;;22.99;68.43;100609.75;5104683;28;20499;-59
2022/07/06 01:25:40;;;;;;;17.33;6.17;;;;;;;23.01;68.59;100610.50;5118452;28;20055;-58
2022/07/06 01:28:11;;;;;;;11.43;5.83;;;;;;;23.00;68.88;100617.63;5112353;28;20048;-58
2022/07/06 01:30:42;;;;;;;24.30;6.50;;;;;;;23.04;68.39;100608.50;5114964;28;20051;-59
2022/07/06 01:33:12;;;;;;;15.73;5.73;;;;;;;23.08;68.75;100617.16;5119880;28;20048;-59
2022/07/06 01:35:44;;;;;;;11.83;6.03;;;;;;;23.14;68.51;100619.44;5114600;28;20068;-58
2022/07/06 01:38:15;;;;;;;14.63;6.13;;;;;;;23.22;68.56;100617.16;5119415;28;20102;-57
2022/07/06 01:40:46;;;;;;;12.50;5.50;;;;;;;23.22;67.59;100617.16;5121454;28;20197;-58
2022/07/06 01:43:16;;;;;;;15.57;7.87;;;;;;;23.20;69.30;100619.03;5115517;28;20055;-57
2022/07/06 01:45:47;;;;;;;18.13;5.97;;;;;;;23.23;69.19;100615.31;5110158;28;20106;-57
2022/07/06 01:48:18;;;;;;;20.47;6.10;;;;;;;23.37;68.76;100620.63;5107169;28;20055;-57
2022/07/06 01:50:50;;;;;;;22.93;5.80;;;;;;;23.38;68.29;100611.66;5106382;28;20063;-57
2022/07/06 01:53:21;;;;;;;25.43;7.27;;;;;;;23.45;69.02;100604.16;5101513;28;20048;-58
2022/07/06 01:55:51;;;;;;;21.67;5.60;;;;;;;23.42;68.01;100607.00;5101531;28;20074;-58
2022/07/06 01:58:22;;;;;;;8.93;5.17;;;;;;;23.28;67.54;100609.72;5120823;28;20056;-59
2022/07/06 02:00:53;;;;;;;12.43;5.90;;;;;;;23.25;67.62;100600.09;5121911;28;20098;-58
2022/07/06 02:03:24;;;;;;;12.47;6.37;;;;;;;23.24;69.46;100583.25;5105963;28;20074;-57
2022/07/06 02:05:57;;;;;;;14.10;5.10;;;;;;;23.41;68.57;100590.16;5101195;28;20060;-58
2022/07/06 02:08:27;;;;;;;9.93;6.57;;;;;;;23.51;68.82;100590.41;5103045;28;20058;-59
2022/07/06 02:10:58;;;;;;;13.57;5.00;;;;;;;23.72;69.10;100588.16;5108561;28;20069;-57
2022/07/06 02:13:29;;;;;;;17.97;6.50;;;;;;;23.76;68.74;100578.16;5111694;28;20071;-58
2022/07/06 02:15:59;;;;;;;10.17;4.80;;;;;;;23.88;68.38;100591.53;5100967;28;20087;-58
2022/07/06 02:18:30;;;;;;;12.60;4.80;;;;;;;23.87;67.40;100581.81;5101536;28;20066;-59
2022/07/06 02:21:03;;;;;;;12.93;4.90;;;;;;;23.74;66.60;100580.06;5101420;28;20089;-58
2022/07/06 02:23:33;;;;;;;12.53;5.27;;;;;;;23.72;67.43;100584.63;5100868;28;20087;-58
2022/07/06 02:26:05;;;;;;;9.60;4.77;;;;;;;23.83;68.00;100579.44;5101386;28;20079;-59
2022/07/06 02:28:35;;;;;;;11.13;5.20;;;;;;;23.84;67.47;100586.53;5101192;28;20052;-59
2022/07/06 02:31:06;;;;;;;8.20;4.83;;;;;;;23.89;68.25;100576.41;5106827;28;20057;-58
2022/07/06 02:33:37;;;;;;;12.77;4.77;;;;;;;24.13;69.13;100575.69;5114467;28;20197;-58
2022/07/06 02:36:09;;;;;;;10.10;4.73;;;;;;;24.15;66.97;100579.09;5100586;28;20048;-59
2022/07/06 02:38:40;;;;;;;11.53;4.93;;;;;;;24.15;67.32;100573.75;5100708;28;20090;-59
2022/07/06 02:41:10;;;;;;;13.70;5.20;;;;;;;24.20;67.95;100566.28;5100384;28;20215;-60
2022/07/06 02:43:41;;;;;;;8.87;4.07;;;;;;;24.34;67.98;100568.88;5100664;28;20367;-60
2022/07/06 02:46:13;;;;;;;9.43;4.43;;;;;;;24.34;66.25;100574.22;5101678;28;20067;-60
2022/07/06 02:48:43;;;;;;;9.47;5.23;;;;;;;24.36;66.77;100574.94;5109586;28;20359;-60
2022/07/06 02:51:16;;;;;;;26.57;5.07;;;;;;;24.47;67.35;100569.75;5109451;28;20111;-59
2022/07/06 02:53:46;;;;;;;11.60;5.57;;;;;;;24.59;66.40;100575.19;5100573;28;20062;-60
2022/07/06 02:56:17;;;;;;;8.23;5.07;;;;;;;24.58;65.97;100571.66;5100435;28;20244;-61
2022/07/06 02:58:48;;;;;;;11.70;4.47;;;;;;;24.64;65.96;100581.09;5100181;28;20055;-60
2022/07/06 03:01:18;;;;;;;38.47;5.97;;;;;;;24.64;65.89;100575.75;5100109;28;20356;-59
2022/07/06 03:03:49;;;;;;;9.20;4.70;;;;;;;24.63;65.76;100579.38;5100268;28;20056;-61
2022/07/06 03:06:21;;;;;;;9.23;4.83;;;;;;;24.60;66.23;100574.25;5100250;28;20055;-60
2022/07/06 03:08:53;;;;;;;26.30;6.57;;;;;;;24.71;67.26;100571.66;5102126;27;20542;-61
2022/07/06 03:11:24;;;;;;;8.73;6.00;;;;;;;24.77;66.04;100571.25;5120153;28;20109;-60
2022/07/06 03:13:54;;;;;;;9.00;4.60;;;;;;;24.86;65.52;100565.25;5119770;28;20054;-60
2022/07/06 03:16:25;;;;;;;22.77;5.10;;;;;;;24.88;65.29;100563.28;5120328;28;20050;-60
2022/07/06 03:18:55;;;;;;;10.13;4.63;;;;;;;24.86;64.73;100554.56;5120569;28;20231;-60
2022/07/06 03:21:28;;;;;;;17.90;4.87;;;;;;;24.72;66.06;100525.28;5120206;28;20126;-60
2022/07/06 03:23:59;;;;;;;5.20;4.07;;;;;;;25.00;65.56;100555.38;5120023;28;20074;-60
2022/07/06 03:26:29;;;;;;;8.50;3.60;;;;;;;24.85;65.56;100515.41;5120348;28;20059;-59
2022/07/06 03:29:00;;;;;;;8.00;3.83;;;;;;;25.06;65.64;100538.88;5120173;28;20047;-59
2022/07/06 03:31:31;;;;;;;9.00;4.30;;;;;;;25.20;65.22;100540.59;5120150;28;20209;-60
2022/07/06 03:34:02;;;;;;;11.67;4.63;;;;;;;25.18;64.42;100538.00;5119981;28;20064;-59
2022/07/06 03:36:34;;;;;;;12.37;4.33;;;;;;;25.07;63.26;100536.09;5120147;28;20055;-59
2022/07/06 03:39:08;;;;;;;4.87;4.03;;;;;;;25.02;63.83;100532.06;5120253;28;20349;-60
2022/07/06 03:41:39;;;;;;;10.27;4.50;;;;;;;24.98;64.75;100532.25;5120053;28;20059;-58
2022/07/06 03:44:09;;;;;;;9.73;4.00;;;;;;;25.10;64.94;100524.34;5119505;28;20048;-58
2022/07/06 03:46:40;;;;;;;13.73;4.27;;;;;;;25.14;64.27;100525.81;5119671;28;20043;-60
2022/07/06 03:49:11;;;;;;;17.63;4.83;;;;;;;25.16;63.81;100523.88;5119783;28;20094;-61
2022/07/06 03:51:43;;;;;;;38.53;6.03;;;;;;;25.21;64.35;100520.88;5119594;28;20055;-59
2022/07/06 03:54:14;;;;;;;64.80;6.17;;;;;;;25.27;63.37;100515.97;5119717;28;20047;-59
2022/07/06 03:56:44;;;;;;;17.10;5.30;;;;;;;25.35;63.84;100513.56;5119781;28;20099;-60
2022/07/06 03:59:15;;;;;;;10.00;5.87;;;;;;;25.47;64.78;100516.31;5119673;28;20058;-59
2022/07/06 04:01:46;;;;;;;23.77;5.63;;;;;;;25.55;63.95;100508.53;5119695;28;20127;-59
2022/07/06 04:04:16;;;;;;;25.73;5.40;;;;;;;25.58;63.39;100513.66;5119525;28;20213;-59
2022/07/06 04:06:49;;;;;;;7.87;4.60;;;;;;;25.52;62.96;100506.09;5119631;28;20051;-58
2022/07/06 04:09:20;;;;;;;17.87;4.80;;;;;;;25.55;63.21;100497.84;5119495;28;20066;-60
2022/07/06 04:11:50;;;;;;;7.43;4.07;;;;;;;25.61;63.66;100502.75;5119493;28;20259;-58
2022/07/06 04:14:21;;;;;;;7.70;4.10;;;;;;;25.70;63.29;100507.38;5119492;28;20211;-60
2022/07/06 04:16:51;;;;;;;5.50;3.97;;;;;;;25.73;62.26;100507.13;5118675;28;20086;-60
2022/07/06 04:19:22;;;;;;;7.33;3.37;;;;;;;25.73;61.94;100491.09;5108045;28;20259;-59
2022/07/06 04:21:54;;;;;;;6.17;3.33;;;;;;;25.78;63.03;100496.09;5114835;28;20063;-61
2022/07/06 04:24:25;;;;;;;6.93;3.67;;;;;;;25.81;61.86;100486.03;5119566;28;20122;-59
2022/07/06 04:26:56;;;;;;;10.77;3.90;;;;;;;25.87;61.86;100499.94;5119358;28;20047;-60
2022/07/06 04:29:26;;;;;;;26.07;4.97;;;;;;;25.90;61.62;100495.19;5119361;28;20313;-60
2022/07/06 04:31:57;;;;;;;10.30;3.80;;;;;;;25.94;61.04;100493.13;5113924;28;20059;-60
2022/07/06 04:34:28;;;;;;;6.23;4.20;;;;;;;25.90;60.86;100497.00;5119478;28;20216;-60
2022/07/06 04:37:00;;;;;;;40.07;5.83;;;;;;;25.87;61.46;100486.56;5118814;28;20073;-60
2022/07/06 04:39:31;;;;;;;14.10;4.37;;;;;;;26.01;62.45;100489.03;5119201;28;20055;-60
2022/07/06 04:42:02;;;;;;;9.53;3.63;;;;;;;26.08;61.25;100490.22;5108746;28;20056;-60
2022/07/06 04:44:33;;;;;;;14.13;4.10;;;;;;;25.98;60.80;100478.53;5100966;28;20058;-60
2022/07/06 04:47:03;;;;;;;10.27;3.87;;;;;;;26.05;60.93;100490.47;5106849;28;20066;-60
2022/07/06 04:49:34;;;;;;;8.13;4.20;;;;;;;26.10;62.25;100493.63;5099064;28;20063;-59
2022/07/06 04:52:07;;;;;;;6.83;4.27;;;;;;;26.16;60.82;100481.59;5098551;28;20052;-60
2022/07/06 04:54:38;;;;;;;30.63;5.07;;;;;;;26.18;60.52;100493.88;5092690;28;20055;-59
2022/07/06 04:57:08;;;;;;;9.40;4.10;;;;;;;26.22;60.29;100492.69;5057670;28;20306;-60
2022/07/06 04:59:42;;;;;;;7.57;4.80;;;;;;;26.18;60.90;100475.13;5058430;28;20294;-59
2022/07/06 05:02:12;;;;;;;26.57;4.33;;;;;;;26.28;60.58;100490.50;5058578;28;20514;-60
2022/07/06 05:04:43;;;;;;;9.00;3.83;;;;;;;26.31;60.28;100495.59;5058167;28;20045;-59
2022/07/06 05:07:15;;;;;;;8.97;4.87;;;;;;;26.27;60.49;100496.84;5057433;28;20057;-59
2022/07/06 05:09:46;;;;;;;28.57;4.97;;;;;;;26.32;60.87;100500.84;5057672;28;20275;-61
2022/07/06 05:12:21;;;;;;;6.13;3.97;;;;;;;26.32;59.86;100497.31;5058883;28;20071;-60
2022/07/06 05:14:51;;;;;;;5.57;3.87;;;;;;;26.38;60.46;100491.47;5057999;28;20313;-60
2022/07/06 05:17:22;;;;;;;15.73;4.30;;;;;;;26.38;60.15;100496.84;5057836;28;20124;-59
2022/07/06 05:19:58;;;;;;;8.27;3.53;;;;;;;26.34;60.42;100492.72;5058288;28;20049;-60
2022/07/06 05:22:30;;;;;;;17.53;4.70;;;;;;;26.35;59.54;100497.06;5057979;28;20069;-59
2022/07/06 05:25:01;;;;;;;18.93;4.20;;;;;;;26.36;60.76;100496.09;5057923;28;20177;-61
2022/07/06 05:27:31;;;;;;;11.90;4.70;;;;;;;26.34;59.76;100492.72;5057361;28;20066;-59
2022/07/06 05:30:02;;;;;;;22.03;5.03;;;;;;;26.34;60.26;100495.38;5057944;28;20073;-60
2022/07/06 05:32:33;;;;;;;11.30;4.40;;;;;;;26.39;60.01;100493.19;5057883;28;20123;-59
2022/07/06 05:35:04;;;;;;;11.57;3.97;;;;;;;26.39;59.48;100493.19;5057816;28;20413;-60
2022/07/06 05:37:56;;;;;;;11.80;4.47;;;;;;;26.39;60.49;100493.19;5057566;28;20036;-60
2022/07/06 05:40:26;;;;;;;7.20;4.07;;;;;;;26.45;59.36;100498.06;5056651;28;20060;-60
2022/07/06 05:42:57;;;;;;;12.30;4.57;;;;;;;26.47;59.79;100496.09;5056633;28;20244;-61
2022/07/06 05:45:28;;;;;;;19.37;5.23;;;;;;;26.40;59.65;100478.81;5058138;28;20061;-61
2022/07/06 05:50:45;;;;;;;7.80;4.37;;;;;;;26.60;59.23;100486.13;5057962;28;20212;-60
2022/07/06 05:53:18;;;;;;;32.53;7.20;;;;;;;26.67;59.93;100489.19;5057366;28;20128;-60
2022/07/06 05:55:49;;;;;;;11.57;5.03;;;;;;;26.52;60.52;100461.75;5057993;28;20083;-60
2022/07/06 05:58:20;;;;;;;12.13;5.43;;;;;;;26.59;58.97;100483.59;5057641;28;20060;-60
2022/07/06 06:00:51;;;;;;;10.20;4.37;;;;;;;26.48;58.76;100481.72;5057424;28;20052;-60
2022/07/06 06:03:22;;;;;;;7.13;4.40;;;;;;;26.41;58.93;100475.16;5057682;28;20063;-60
2022/07/06 06:05:53;;;;;;;12.57;4.33;;;;;;;26.44;59.81;100480.28;5056567;28;20056;-61
2022/07/06 06:08:25;;;;;;;19.20;5.13;;;;;;;26.49;59.79;100478.09;5057460;28;20067;-61
2022/07/06 06:10:57;;;;;;;7.67;5.63;;;;;;;26.52;59.61;100472.47;5056768;28;20045;-60
2022/07/06 06:13:28;;;;;;;8.67;6.57;;;;;;;26.56;59.44;100473.97;5056961;28;20041;-60
2022/07/06 06:15:58;;;;;;;15.60;7.13;;;;;;;26.52;59.59;100471.63;5055934;28;20071;-60
2022/07/06 06:18:29;;;;;;;9.17;5.03;;;;;;;26.52;59.82;100472.47;5057182;28;20061;-60
2022/07/06 06:21:06;;;;;;;10.33;5.50;;;;;;;26.51;59.41;100475.28;5057390;28;20267;-60
2022/07/06 06:23:38;;;;;;;11.27;5.33;;;;;;;26.48;59.15;100473.69;5056998;28;20064;-60
2022/07/06 06:26:08;;;;;;;14.07;5.73;;;;;;;26.43;59.31;100468.72;5057139;28;20056;-61
2022/07/06 06:28:41;;;;;;;23.03;6.07;;;;;;;26.40;60.53;100473.47;5056898;28;20202;-60
2022/07/06 06:31:11;;;;;;;12.17;6.17;;;;;;;26.43;60.10;100470.53;5055689;28;20048;-60
2022/07/06 06:33:42;;;;;;;13.47;5.60;;;;;;;26.45;61.19;100465.91;5056907;28;20087;-60
2022/07/06 06:36:13;;;;;;;56.37;7.93;;;;;;;26.57;60.99;100467.63;5056555;28;20061;-60
2022/07/06 06:38:45;;;;;;;7.87;5.13;;;;;;;26.51;60.03;100465.44;5056974;28;20065;-61
2022/07/06 06:41:20;;;;;;;11.97;5.20;;;;;;;26.37;60.63;100468.34;5056649;28;20045;-60
2022/07/06 06:43:51;;;;;;;7.93;5.43;;;;;;;26.31;61.24;100469.69;5056600;28;20052;-61
2022/07/06 06:46:21;;;;;;;8.80;4.27;;;;;;;26.31;61.14;100463.47;5056487;28;20044;-60
2022/07/06 06:48:52;;;;;;;11.63;5.23;;;;;;;26.27;60.83;100473.56;5056632;28;20124;-60
2022/07/06 06:51:23;;;;;;;14.90;4.77;;;;;;;26.19;61.32;100466.16;5056301;28;20103;-60
2022/07/06 06:53:55;;;;;;;5.70;4.47;;;;;;;26.15;61.44;100469.19;5056538;28;20061;-61
2022/07/06 06:56:26;;;;;;;27.83;5.47;;;;;;;26.10;62.31;100477.56;5056773;28;20061;-60
2022/07/06 06:58:56;;;;;;;11.23;5.00;;;;;;;26.10;62.11;100472.22;5056382;28;20045;-61
2022/07/06 07:01:46;;;;;;;17.77;11.60;;;;;;;26.07;62.44;100467.09;5056320;28;20052;-60
2022/07/06 07:04:24;;;;;;;;;;;;;;;26.12;62.94;100474.78;5056930;28;20063;-60
2022/07/06 07:06:54;;;;;;;66.57;9.00;;;;;;;26.13;63.13;100471.97;5056428;28;19940;-60
2022/07/06 07:09:27;;;;;;;30.47;6.70;;;;;;;26.19;62.93;100466.16;5056090;28;20120;-60
2022/07/06 07:11:57;;;;;;;9.53;4.90;;;;;;;26.31;62.58;100479.53;5055774;28;20859;-60
2022/07/06 07:14:28;;;;;;;9.50;5.93;;;;;;;26.16;61.74;100471.75;5055763;28;20272;-62
2022/07/06 07:16:59;;;;;;;12.93;6.53;;;;;;;26.11;62.44;100467.72;5055734;28;20056;-60
2022/07/06 07:19:29;;;;;;;43.77;8.47;;;;;;;26.08;62.73;100476.84;5055413;28;20116;-60
2022/07/06 07:22:00;;;;;;;10.63;6.00;;;;;;;26.04;62.41;100472.72;5055139;28;20248;-60
2022/07/06 07:24:32;;;;;;;16.83;7.80;;;;;;;25.95;62.71;100466.22;5055634;28;20086;-60
2022/07/06 07:27:03;;;;;;;13.27;8.57;;;;;;;25.90;63.14;100459.53;5055916;28;20229;-60
2022/07/06 07:29:34;;;;;;;15.17;8.63;;;;;;;25.98;63.43;100462.47;5055799;28;20304;-60
2022/07/06 07:32:05;;;;;;;42.87;10.90;;;;;;;26.02;63.63;100463.94;5055304;28;20056;-60
2022/07/06 07:34:35;;;;;;;13.17;8.10;;;;;;;25.95;63.82;100470.75;5054345;28;20055;-61
2022/07/06 07:37:06;;;;;;;15.00;6.83;;;;;;;25.92;63.82;100468.31;5054653;28;20067;-60
2022/07/06 07:39:38;;;;;;;12.03;7.83;;;;;;;25.91;62.88;100453.19;5055541;28;20216;-60
2022/07/06 07:42:09;;;;;;;12.50;7.53;;;;;;;25.83;63.03;100465.34;5055337;28;20281;-61
2022/07/06 07:44:46;;;;;;;28.13;7.80;;;;;;;25.74;63.16;100466.03;5055816;28;20053;-61
2022/07/06 07:47:17;;;;;;;30.40;7.77;;;;;;;25.61;63.71;100479.50;5055946;28;20059;-59
2022/07/06 07:49:47;;;;;;;56.77;9.37;;;;;;;25.53;64.02;100473.03;5055049;28;20108;-59
2022/07/06 07:52:18;;;;;;;15.03;6.90;;;;;;;25.47;63.64;100474.34;5055711;28;20187;-59
2022/07/06 07:54:50;;;;;;;16.87;7.07;;;;;;;25.49;64.46;100484.94;5054735;28;20060;-60
2022/07/06 07:57:41;;;;;;;14.03;6.70;;;;;;;25.31;64.17;100474.66;5055201;28;20091;-59
2022/07/06 08:00:12;;;;;;;19.27;7.37;;;;;;;25.32;64.98;100486.19;5055543;28;20068;-60
2022/07/06 08:02:43;;;;;;;11.97;6.97;;;;;;;25.32;65.25;100476.34;5055598;28;20321;-61
2022/07/06 08:05:15;;;;;;;17.60;8.30;;;;;;;25.21;64.43;100476.31;5055757;28;20333;-60
2022/07/06 08:07:46;;;;;;;12.27;9.07;;;;;;;25.14;64.88;100473.19;5055113;28;20064;-60
2022/07/06 08:10:18;;;;;;;14.13;7.63;;;;;;;25.12;65.07;100474.28;5054760;28;20055;-61
2022/07/06 08:12:49;;;;;;;14.03;7.97;;;;;;;25.06;65.18;100472.03;5054654;28;20325;-62
2022/07/06 08:15:19;;;;;;;16.03;8.20;;;;;;;24.91;65.33;100466.88;5055324;28;20053;-62
2022/07/06 08:17:50;;;;;;;13.60;8.00;;;;;;;24.74;64.80;100483.28;5054585;28;20147;-61
2022/07/06 08:20:21;;;;;;;14.17;6.73;;;;;;;24.54;65.65;100485.56;5054647;28;20052;-61
2022/07/06 08:22:52;;;;;;;16.63;7.37;;;;;;;24.36;66.20;100470.78;5055207;28;20060;-59
2022/07/06 08:25:24;;;;;;;11.30;6.63;;;;;;;24.34;66.44;100483.41;5053914;28;20061;-62
2022/07/06 08:27:55;;;;;;;21.87;7.07;;;;;;;24.27;66.73;100487.47;5055058;28;20067;-61
2022/07/06 08:30:26;;;;;;;11.10;6.07;;;;;;;24.19;66.80;100484.47;5057941;28;20052;-60
2022/07/06 08:32:56;;;;;;;15.13;6.87;;;;;;;24.14;67.17;100497.28;5058921;28;20124;-61
2022/07/06 08:35:36;;;;;;;12.57;6.73;;;;;;;24.06;67.18;100489.81;5058746;28;20179;-60
2022/07/06 08:38:07;;;;;;;11.60;6.33;;;;;;;24.05;66.88;100510.31;5058881;28;20065;-60
2022/07/06 08:40:41;;;;;;;15.70;8.13;;;;;;;23.93;67.34;100510.31;5058654;28;20477;-60
2022/07/06 08:43:14;;;;;;;16.63;7.03;;;;;;;23.79;67.13;100513.91;5056497;28;20127;-61
2022/07/06 08:45:46;;;;;;;14.93;9.77;;;;;;;23.49;67.60;100491.00;5058847;28;20116;-60
2022/07/06 08:48:17;;;;;;;37.43;11.00;;;;;;;23.66;68.07;100519.19;5058763;28;20299;-60
2022/07/06 08:50:49;;;;;;;13.90;8.90;;;;;;;23.59;67.84;100508.09;5058599;28;20241;-62
2022/07/06 08:53:19;;;;;;;18.10;8.20;;;;;;;23.46;68.62;100500.06;5058586;28;20079;-60
2022/07/06 08:55:53;;;;;;;15.07;8.87;;;;;;;23.48;68.66;100505.25;5058334;28;20110;-61
2022/07/06 08:58:27;;;;;;;32.97;10.13;;;;;;;23.42;68.98;100511.03;5058433;28;20324;-61
2022/07/06 09:00:59;;;;;;;16.73;8.30;;;;;;;23.31;69.01;100502.84;5058410;28;20079;-61
2022/07/06 09:03:30;;;;;;;17.43;9.07;;;;;;;23.32;69.39;100509.91;5058569;28;20061;-61
2022/07/06 09:06:04;;;;;;;23.00;10.67;;;;;;;23.22;69.25;100509.66;5058483;28;20071;-61
2022/07/06 09:08:36;;;;;;;17.87;8.60;;;;;;;23.09;69.42;100514.94;5058406;28;20088;-60
2022/07/06 09:11:08;;;;;;;14.30;8.43;;;;;;;23.08;69.47;100517.69;5057450;28;20246;-62
2022/07/06 09:13:39;;;;;;;16.00;11.53;;;;;;;23.03;69.35;100509.97;5058067;28;20052;-61
2022/07/06 09:16:14;;;;;;;20.97;13.53;;;;;;;22.95;70.20;100512.25;5058355;28;20098;-61
2022/07/06 09:19:05;;;;;;;18.50;13.20;;;;;;;22.94;70.02;100507.88;5058112;28;20055;-61
2022/07/06 09:21:37;;;;;;;18.50;12.93;;;;;;;22.88;70.12;100506.47;5058540;28;20065;-61
2022/07/06 09:24:12;;;;;;;18.73;10.27;;;;;;;22.71;70.01;100499.53;5057946;28;20144;-60
2022/07/06 09:26:44;;;;;;;23.47;11.33;;;;;;;22.56;70.34;100511.16;5057770;28;20193;-61
2022/07/06 09:29:15;;;;;;;14.57;9.97;;;;;;;22.42;71.04;100513.84;5058152;28;20294;-60
2022/07/06 09:31:59;;;;;;;32.27;12.87;;;;;;;22.17;71.33;100499.34;5057589;28;20120;-61
2022/07/06 09:34:43;;;;;;;21.83;9.95;;;;;;;22.21;71.81;100522.16;5056903;28;20124;-62
2022/07/06 09:37:14;;;;;;;18.53;11.80;;;;;;;22.09;71.69;100529.06;5057156;28;20060;-62
2022/07/06 09:39:46;;;;;;;16.67;10.20;;;;;;;22.03;72.69;100528.56;5057490;28;20067;-61
2022/07/06 09:42:18;;;;;;;18.50;10.93;;;;;;;22.02;72.98;100530.41;5056227;28;20261;-61
2022/07/06 09:44:50;;;;;;;28.43;14.30;;;;;;;21.93;72.96;100537.09;5057090;28;20052;-60
2022/07/06 09:47:21;;;;;;;29.97;16.57;;;;;;;21.83;73.13;100538.59;5056979;28;20324;-63
2022/07/06 09:49:57;;;;;;;39.20;14.53;;;;;;;21.51;73.42;100514.72;5056820;28;20209;-60
2022/07/06 09:52:27;;;;;;;17.87;12.30;;;;;;;21.40;74.12;100534.94;5056719;28;20326;-61
2022/07/06 09:54:58;;;;;;;20.20;11.37;;;;;;;21.20;74.90;100539.53;5056156;28;20300;-60
2022/07/06 09:57:30;;;;;;;19.23;9.97;;;;;;;21.13;75.44;100553.25;5056283;28;20048;-61
2022/07/06 10:00:01;;;;;;;22.20;10.97;;;;;;;20.98;75.94;100547.84;5056470;28;20068;-61
2022/07/06 10:02:32;;;;;;;24.30;14.40;;;;;;;20.73;76.84;100518.25;5056554;28;20077;-61
2022/07/06 10:05:04;;;;;;;21.90;12.93;;;;;;;20.77;77.25;100546.38;5056397;28;20604;-60
2022/07/06 10:07:35;;;;;;;22.87;10.97;;;;;;;20.60;77.84;100548.13;5056511;28;20045;-60
2022/07/06 10:10:07;;;;;;;18.93;10.43;;;;;;;20.41;78.75;100550.00;5056130;28;20282;-60
2022/07/06 10:12:42;;;;;;;22.20;12.60;;;;;;;20.24;79.49;100551.75;5055709;28;20491;-61
2022/07/06 10:15:13;;;;;;;21.23;11.40;;;;;;;20.08;80.49;100553.47;5056534;28;20298;-60
2022/07/06 10:17:44;;;;;;;23.40;12.73;;;;;;;19.78;81.01;100518.78;5055702;28;20288;-61
2022/07/06 10:20:16;;;;;;;28.03;16.90;;;;;;;19.89;81.67;100552.69;5055338;28;20307;-62
2022/07/06 10:22:47;;;;;;;24.43;14.20;;;;;;;19.75;81.95;100548.09;5055514;28;20295;-61
2022/07/06 10:25:19;;;;;;;28.90;12.33;;;;;;;19.71;83.09;100550.03;5055615;28;20523;-61
2022/07/06 10:27:52;;;;;;;21.90;11.80;;;;;;;19.68;83.19;100560.78;5055133;28;20690;-60
2022/07/06 10:30:24;;;;;;;25.07;12.10;;;;;;;19.63;83.32;100552.16;5056383;28;20292;-62
2022/07/06 10:32:57;;;;;;;23.47;15.20;;;;;;;19.59;83.82;100562.09;5055777;28;20299;-60
2022/07/06 10:35:28;;;;;;;30.83;19.83;;;;;;;19.49;84.39;100565.22;5055440;28;20576;-62
2022/07/06 10:38:08;;;;;;;25.37;13.70;;;;;;;19.38;84.82;100563.97;5055844;28;20283;-61
2022/07/06 10:43:35;;;;;;;;;;;;;;;19.31;85.70;100589.03;5056883;28;20336;-61
2022/07/06 10:46:10;;;;;;;21.43;11.20;;;;;;;19.30;85.98;100592.63;5056466;28;19920;-61
2022/07/06 10:48:41;;;;;;;22.40;13.67;;;;;;;19.29;86.09;100601.50;5055621;28;20295;-61
2022/07/06 10:51:14;;;;;;;28.20;15.00;;;;;;;19.29;86.59;100596.19;5055892;28;20303;-62
2022/07/06 10:53:44;;;;;;;30.70;17.10;;;;;;;19.26;86.55;100603.44;5054742;28;20291;-60
2022/07/06 10:56:15;;;;;;;30.60;18.23;;;;;;;19.20;86.98;100607.25;5055618;28;20494;-60
2022/07/06 10:58:52;;;;;;;37.03;23.83;;;;;;;19.00;87.32;100589.63;5056963;28;20291;-61
2022/07/06 11:01:24;;;;;;;29.30;16.73;;;;;;;18.92;87.23;100571.44;5056334;28;20584;-61
2022/07/06 11:04:08;;;;;;;27.80;13.50;;;;;;;19.02;87.30;100608.06;5056112;28;20303;-61
2022/07/06 11:06:40;;;;;;;22.33;12.37;;;;;;;18.95;87.38;100618.97;5056277;28;20291;-61
2022/07/06 11:09:14;;;;;;;21.03;10.73;;;;;;;18.96;87.52;100631.25;5056345;28;20499;-61
2022/07/06 11:11:48;;;;;;;32.37;16.77;;;;;;;18.85;87.48;100617.66;5056236;28;20595;-61
2022/07/06 11:14:23;;;;;;;27.07;14.47;;;;;;;18.86;87.74;100619.38;5056407;28;20291;-61
2022/07/06 11:17:05;;;;;;;92.10;17.70;;;;;;;18.83;87.88;100624.81;5056076;28;20287;-61
2022/07/06 11:19:35;;;;;;;29.10;12.33;;;;;;;18.79;87.93;100617.91;5056304;28;20300;-61
2022/07/06 11:22:11;;;;;;;26.57;11.40;;;;;;;18.69;88.03;100617.44;5054966;28;20299;-61
2022/07/06 11:24:43;;;;;;;29.03;13.60;;;;;;;18.71;88.41;100614.72;5055430;28;20602;-61
2022/07/06 11:27:14;;;;;;;29.20;13.07;;;;;;;18.64;88.05;100602.69;5055324;28;20287;-61
2022/07/06 11:29:47;;;;;;;24.30;12.23;;;;;;;18.65;88.12;100609.72;5056149;28;20298;-61
2022/07/06 11:32:24;;;;;;;25.97;12.40;;;;;;;18.48;88.29;100589.28;5055952;28;20287;-61
2022/07/06 11:34:55;;;;;;;26.20;11.87;;;;;;;18.60;88.37;100617.00;5055664;28;20287;-61
2022/07/06 11:37:26;;;;;;;33.40;17.73;;;;;;;18.47;88.65;100617.53;5055847;28;20318;-62
2022/07/06 11:39:57;;;;;;;38.60;18.63;;;;;;;18.37;89.17;100615.34;5055561;28;20529;-61
2022/07/06 11:42:27;;;;;;;25.63;13.20;;;;;;;18.28;89.83;100617.47;5055891;28;20346;-61
2022/07/06 11:45:00;;;;;;;29.53;12.77;;;;;;;18.28;89.96;100621.91;5055135;28;20315;-61